Time;durP1;ratioP1;P1;durP2;ratioP2;P2;SDS_P1;SDS_P2;PMS_P1;PMS_P2;Temp;Humidity;BMP_temperature;BMP_pressure;BME280_temperature;BME280_humidity;BME280_pressure;Samples;Min_cycle;Max_cycle;Signal;HPM_P1;HPM_P2
2023/02/17 00:01:32;;;;;;;18.30;9.32;;;9.60;99.90;;;9.08;100.00;98396.50;5033090;28;20045;-62
2023/02/17 00:04:00;;;;;;;16.55;9.88;;;9.60;99.90;;;9.08;100.00;98389.56;5024391;28;20451;-64
2023/02/17 00:06:29;;;;;;;15.13;9.43;;;9.50;99.90;;;9.03;100.00;98398.31;5021422;28;20500;-62
2023/02/17 00:08:58;;;;;;;17.05;9.65;;;9.50;99.90;;;8.99;100.00;98395.81;5022781;28;20045;-62
2023/02/17 00:11:27;;;;;;;19.98;9.00;;;9.50;99.90;;;9.03;100.00;98388.81;5019389;28;20072;-64
2023/02/17 00:13:54;;;;;;;16.27;10.40;;;9.60;99.90;;;8.97;100.00;98395.00;5022018;28;20045;-64
2023/02/17 00:16:25;;;;;;;17.65;10.10;;;9.60;99.90;;;8.96;100.00;98393.31;5020848;28;20055;-64
2023/02/17 00:18:59;;;;;;;16.40;9.25;;;9.60;99.90;;;8.98;100.00;98388.06;5018291;28;20057;-64
2023/02/17 00:21:30;;;;;;;14.95;8.88;;;9.60;99.90;;;8.95;100.00;98396.75;5022140;28;20042;-63
2023/02/17 00:23:58;;;;;;;16.90;9.52;;;9.60;99.90;;;9.04;100.00;98402.63;5023028;28;20489;-64
2023/02/17 00:26:25;;;;;;;16.90;9.07;;;9.60;99.90;;;8.99;100.00;98401.00;5018774;28;20137;-63
2023/02/17 00:28:52;;;;;;;15.02;8.65;;;9.60;99.90;;;9.02;100.00;98396.63;5038516;28;20049;-64
2023/02/17 00:31:21;;;;;;;15.85;9.50;;;9.60;99.90;;;9.00;100.00;98407.84;5018896;28;20057;-64
2023/02/17 00:33:49;;;;;;;13.95;9.05;;;9.70;99.90;;;8.94;100.00;98402.84;5023234;28;20081;-63
2023/02/17 00:36:18;;;;;;;17.30;10.02;;;9.60;99.90;;;8.97;100.00;98382.03;5024247;28;20049;-63
2023/02/17 00:38:47;;;;;;;18.55;9.13;;;9.50;99.90;;;9.04;100.00;98405.22;5024872;28;20037;-63
2023/02/17 00:41:18;;;;;;;17.65;10.10;;;9.50;99.90;;;8.90;100.00;98390.84;5023075;28;20666;-63
2023/02/17 00:43:46;;;;;;;15.30;9.27;;;9.50;99.90;;;8.96;100.00;98390.72;5022318;28;20167;-64
2023/02/17 00:46:17;;;;;;;18.77;10.63;;;9.50;99.90;;;8.97;100.00;98407.09;5019254;28;21077;-63
2023/02/17 00:48:45;;;;;;;16.88;9.10;;;9.50;99.90;;;8.90;100.00;98402.94;5020507;28;20072;-61
2023/02/17 00:51:14;;;;;;;17.23;10.23;;;9.50;99.90;;;8.92;100.00;98396.84;5018864;28;20434;-65
2023/02/17 00:53:41;;;;;;;17.23;10.07;;;9.50;99.90;;;8.91;100.00;98379.59;5035226;28;20500;-64
2023/02/17 00:56:08;;;;;;;16.27;9.48;;;9.50;99.90;;;8.94;100.00;98389.91;5019925;28;20103;-64
2023/02/17 00:58:36;;;;;;;18.35;9.52;;;9.40;99.90;;;8.87;100.00;98390.06;5023470;28;20050;-62
2023/02/17 01:01:03;;;;;;;17.48;10.57;;;9.40;99.90;;;8.81;100.00;98383.28;5030018;28;20057;-63
2023/02/17 01:03:30;;;;;;;22.08;10.27;;;9.40;99.90;;;8.82;100.00;98378.94;5022387;28;20136;-64
2023/02/17 01:05:57;;;;;;;19.13;8.95;;;9.40;99.90;;;8.82;100.00;98399.66;5026174;28;20125;-62
2023/02/17 01:08:25;;;;;;;17.25;9.57;;;9.40;99.90;;;8.76;100.00;98392.91;5021604;28;20057;-63
2023/02/17 01:10:52;;;;;;;18.58;10.23;;;9.40;99.90;;;8.84;100.00;98395.31;5026466;28;20049;-63
2023/02/17 01:13:19;;;;;;;18.98;9.32;;;9.40;99.90;;;8.87;100.00;98371.94;5025628;28;20445;-63
2023/02/17 01:15:50;;;;;;;19.17;10.23;;;9.40;99.90;;;8.74;100.00;98416.22;5026755;28;20136;-63
2023/02/17 01:18:20;;;;;;;19.58;10.05;;;9.40;99.90;;;8.81;100.00;98401.41;5027012;28;21696;-64
2023/02/17 01:20:47;;;;;;;18.48;10.15;;;9.40;99.90;;;8.76;100.00;98395.50;5024555;28;20125;-64
2023/02/17 01:23:16;;;;;;;15.32;9.63;;;9.40;99.90;;;8.80;100.00;98397.09;5022261;28;20475;-62
2023/02/17 01:25:49;;;;;;;18.17;9.35;;;9.40;99.90;;;8.73;100.00;98411.91;5024579;28;20049;-63
2023/02/17 01:28:20;;;;;;;;;;;9.40;99.90;;;8.77;100.00;98397.19;5026554;28;20132;-62
2023/02/17 01:30:48;;;;;;;18.33;9.50;;;9.40;99.90;;;8.68;100.00;98424.09;5023473;28;19921;-64
2023/02/17 01:33:15;;;;;;;22.35;9.18;;;9.30;99.90;;;8.73;100.00;98413.66;5025881;28;20132;-64
2023/02/17 01:35:42;;;;;;;18.90;9.35;;;9.40;99.90;;;8.70;100.00;98417.16;5022962;28;20042;-64
2023/02/17 01:38:09;;;;;;;16.63;9.45;;;9.30;99.90;;;8.70;100.00;98413.72;5027765;28;20045;-63
2023/02/17 01:40:36;;;;;;;15.05;9.93;;;9.30;99.90;;;8.77;100.00;98418.72;5022942;28;20187;-64
2023/02/17 01:43:03;;;;;;;14.93;9.73;;;9.30;99.90;;;8.81;100.00;98421.28;5025729;28;20049;-64
2023/02/17 01:46:00;;;;;;;20.98;9.75;;;9.30;99.90;;;8.63;100.00;98409.56;5026757;28;20136;-63
2023/02/17 01:48:42;;;;;;;17.77;9.93;;;9.30;99.90;;;8.65;100.00;98413.00;5023799;28;20057;-64
2023/02/17 01:51:21;;;;;;;16.08;8.82;;;9.20;99.90;;;8.64;100.00;98429.38;5035626;28;20050;-64
2023/02/17 01:53:52;;;;;;;17.75;8.25;;;9.20;99.90;;;8.55;100.00;98427.84;5023596;28;20137;-63
2023/02/17 01:56:21;;;;;;;14.23;8.93;;;9.20;99.90;;;8.49;100.00;98418.47;5023841;28;20064;-64
2023/02/17 01:58:56;;;;;;;17.83;10.23;;;9.20;99.90;;;8.42;100.00;98449.69;5025302;28;20511;-63
2023/02/17 02:01:23;;;;;;;19.17;10.57;;;9.10;99.90;;;8.23;100.00;98470.69;5023963;28;20041;-63
2023/02/17 02:03:51;;;;;;;15.88;10.48;;;9.00;99.90;;;8.19;100.00;98456.13;5022969;28;20072;-64
2023/02/17 02:06:24;;;;;;;19.88;10.25;;;9.00;99.90;;;8.04;100.00;98462.41;5040170;28;20136;-64
2023/02/17 02:09:04;;;;;;;17.95;10.13;;;8.90;99.90;;;8.05;100.00;98477.06;5019572;28;20046;-64
2023/02/17 02:11:31;;;;;;;17.35;10.07;;;8.80;99.90;;;8.06;100.00;98447.75;5037596;28;20081;-63
2023/02/17 02:13:59;;;;;;;19.67;11.02;;;8.60;99.90;;;7.95;100.00;98494.47;5023870;28;20072;-63
2023/02/17 02:16:44;;;;;;;18.23;10.88;;;8.60;99.90;;;8.03;100.00;98485.72;5024584;28;20049;-64
2023/02/17 02:19:43;;;;;;;21.83;12.43;;;8.60;99.90;;;7.90;100.00;98506.63;5024891;28;20046;-63
2023/02/17 02:22:39;;;;;;;16.38;9.13;;;8.60;99.90;;;8.06;100.00;98496.88;5027114;28;20045;-63
2023/02/17 02:25:30;;;;;;;18.20;10.52;;;8.60;99.90;;;8.03;100.00;98517.63;5023830;28;20985;-63
2023/02/17 02:29:05;;;;;;;20.35;12.73;;;8.60;99.90;;;7.94;100.00;98526.38;5025448;28;20370;-65
2023/02/17 02:32:03;;;;;;;22.58;10.85;;;8.50;99.90;;;7.91;100.00;98515.22;5009656;28;20045;-63
2023/02/17 02:34:44;;;;;;;18.95;11.30;;;8.40;99.90;;;7.83;100.00;98512.78;5025665;28;20064;-63
2023/02/17 02:37:21;;;;;;;19.42;12.30;;;8.30;99.90;;;7.81;100.00;98517.09;5026687;28;20123;-63
2023/02/17 02:39:53;;;;;;;20.15;12.27;;;8.30;99.90;;;7.73;100.00;98526.69;5022850;28;21304;-63
2023/02/17 02:42:23;;;;;;;19.73;10.93;;;8.20;99.90;;;7.64;100.00;98516.50;5026597;28;20137;-63
2023/02/17 02:44:50;;;;;;;21.65;12.52;;;8.20;99.90;;;7.62;100.00;98506.22;5027655;28;20052;-61
2023/02/17 02:47:50;;;;;;;21.45;12.38;;;8.20;99.90;;;7.70;100.00;98491.44;5024291;28;20049;-64
2023/02/17 02:51:03;;;;;;;17.58;12.20;;;8.20;99.90;;;7.71;100.00;98484.56;5026180;28;20050;-63
2023/02/17 02:53:58;;;;;;;18.23;13.23;;;8.20;99.90;;;7.65;100.00;98492.41;5025544;28;20459;-63
2023/02/17 02:56:37;;;;;;;21.48;12.38;;;8.10;99.90;;;7.36;100.00;98491.09;5024442;28;20050;-63
2023/02/17 02:59:37;;;;;;;24.13;13.93;;;8.00;99.90;;;7.41;100.00;98498.78;5021292;28;20041;-63
2023/02/17 03:02:16;;;;;;;26.10;14.90;;;7.90;99.90;;;7.43;100.00;98502.22;5021028;28;20109;-63
2023/02/17 03:05:15;;;;;;;25.70;15.55;;;7.90;99.90;;;8.05;100.00;98536.53;5022016;28;20574;-62
2023/02/17 03:08:08;;;;;;;23.48;14.70;;;7.90;99.90;;;8.27;100.00;98523.22;5009931;28;20479;-63
2023/02/17 03:10:43;;;;;;;24.02;15.50;;;7.90;99.90;;;8.01;100.00;98537.47;5019416;28;20227;-63
2023/02/17 03:13:10;;;;;;;21.90;12.50;;;7.80;99.90;;;8.17;100.00;98509.59;5017387;28;20055;-63
2023/02/17 03:15:38;;;;;;;25.65;13.45;;;7.80;99.90;;;8.68;100.00;98526.78;5022259;28;20072;-63
2023/02/17 03:18:05;;;;;;;26.45;14.57;;;7.80;99.90;;;9.29;100.00;98498.75;5022999;28;20049;-63
2023/02/17 03:20:37;;;;;;;16.92;12.15;;;7.80;99.90;;;8.83;100.00;98489.41;5025515;28;20113;-63
2023/02/17 03:23:06;;;;;;;21.55;14.63;;;7.80;99.90;;;8.74;100.00;98504.22;5026320;28;20049;-60
2023/02/17 03:25:34;;;;;;;21.23;13.82;;;7.90;99.90;;;8.58;100.00;98524.38;5027456;28;20059;-62
2023/02/17 03:28:01;;;;;;;21.73;12.95;;;7.90;99.90;;;8.66;100.00;98529.41;5029853;28;20052;-63
2023/02/17 03:30:28;;;;;;;22.77;15.30;;;7.90;99.90;;;8.58;100.00;98526.13;5024095;28;20046;-63
2023/02/17 03:32:55;;;;;;;24.13;14.13;;;7.90;99.90;;;8.79;100.00;98488.59;5014757;28;20057;-63
2023/02/17 03:35:22;;;;;;;24.73;14.68;;;7.90;99.90;;;8.44;100.00;98497.06;5024603;28;20099;-63
2023/02/17 03:37:49;;;;;;;26.15;15.23;;;7.90;99.90;;;8.46;100.00;98505.66;5027105;28;20056;-63
2023/02/17 03:40:16;;;;;;;24.48;14.40;;;7.90;99.90;;;8.30;100.00;98543.84;5025856;28;20060;-63
2023/02/17 03:42:43;;;;;;;20.20;12.60;;;7.80;99.90;;;8.54;100.00;98553.78;5024307;28;20193;-63
2023/02/17 03:45:10;;;;;;;26.95;13.25;;;7.80;99.90;;;8.46;100.00;98550.50;5024984;28;20393;-63
2023/02/17 03:47:37;;;;;;;23.98;14.40;;;7.80;99.90;;;8.44;100.00;98551.38;5023563;28;20050;-62
2023/02/17 03:50:05;;;;;;;18.77;12.18;;;7.80;99.90;;;8.34;100.00;98548.09;5023278;28;20053;-63
2023/02/17 03:52:32;;;;;;;22.75;14.90;;;7.80;99.90;;;8.34;100.00;98548.94;5024399;28;20057;-63
2023/02/17 03:54:59;;;;;;;21.27;12.82;;;7.80;99.90;;;8.40;100.00;98535.09;5019187;28;20049;-63
2023/02/17 03:57:26;;;;;;;19.25;13.93;;;7.80;99.90;;;8.43;100.00;98509.16;5020144;28;20083;-63
2023/02/17 03:59:53;;;;;;;26.10;15.32;;;7.70;99.90;;;8.59;100.00;98520.06;5026416;28;20084;-63
2023/02/17 04:02:20;;;;;;;22.50;14.23;;;7.70;99.90;;;8.55;100.00;98500.28;5024326;28;20076;-63
2023/02/17 04:04:47;;;;;;;19.00;13.25;;;7.70;99.90;;;8.30;100.00;98524.03;5023465;28;20077;-63
2023/02/17 04:07:14;;;;;;;22.70;13.32;;;7.70;99.90;;;8.63;100.00;98520.88;5023473;28;20534;-63
2023/02/17 04:09:41;;;;;;;19.30;12.98;;;7.70;99.90;;;8.48;100.00;98517.66;5024116;28;20065;-63
2023/02/17 04:12:08;;;;;;;21.33;12.40;;;7.70;99.90;;;8.21;100.00;98554.34;5024914;28;20061;-63
2023/02/17 04:14:35;;;;;;;17.85;12.05;;;7.80;99.90;;;8.35;100.00;98547.22;5024620;28;20503;-63
2023/02/17 04:17:02;;;;;;;18.13;11.65;;;7.80;99.90;;;8.50;100.00;98551.28;5023442;28;20126;-63
2023/02/17 04:19:29;;;;;;;18.40;11.70;;;7.80;99.90;;;8.63;100.00;98534.66;5022908;28;20037;-64
2023/02/17 04:21:56;;;;;;;18.80;10.88;;;7.80;99.90;;;8.51;100.00;98560.78;5024817;28;20053;-63
2023/02/17 04:24:23;;;;;;;19.13;12.32;;;7.80;99.90;;;8.63;100.00;98546.75;5026500;28;20484;-63
2023/02/17 04:26:50;;;;;;;16.77;10.68;;;7.80;99.90;;;8.38;100.00;98560.09;5025822;28;20056;-64
2023/02/17 04:29:17;;;;;;;16.75;10.65;;;7.90;99.90;;;8.30;100.00;98564.53;5027663;28;20071;-63
2023/02/17 04:31:44;;;;;;;18.60;11.40;;;7.80;99.90;;;8.33;100.00;98556.75;5031095;28;20514;-62
2023/02/17 04:34:11;;;;;;;13.18;8.77;;;7.90;99.90;;;8.41;100.00;98564.38;5028730;28;20048;-63
2023/02/17 04:36:38;;;;;;;13.43;9.68;;;7.80;99.90;;;8.34;100.00;98550.69;5028432;28;20056;-63
2023/02/17 04:39:05;;;;;;;16.17;10.23;;;7.80;99.90;;;8.86;100.00;98583.38;5022003;28;20052;-63
2023/02/17 04:41:32;;;;;;;15.73;10.90;;;7.90;99.90;;;8.77;100.00;98592.16;5032835;28;20044;-63
2023/02/17 04:43:59;;;;;;;13.23;9.35;;;7.80;99.90;;;8.89;100.00;98583.31;5029862;28;20076;-63
2023/02/17 04:46:26;;;;;;;11.35;7.43;;;7.80;99.90;;;8.61;100.00;98567.47;5030856;28;20095;-63
2023/02/17 04:48:52;;;;;;;12.20;9.02;;;7.80;99.90;;;8.62;100.00;98553.66;5028456;28;20059;-63
2023/02/17 04:51:19;;;;;;;10.95;7.57;;;7.80;99.90;;;8.62;100.00;98570.91;5025494;28;20060;-63
2023/02/17 04:53:47;;;;;;;14.88;9.55;;;7.80;99.90;;;8.83;100.00;98552.38;5028782;28;20128;-64
2023/02/17 04:56:14;;;;;;;10.13;7.22;;;7.80;99.90;;;8.77;100.00;98542.97;5026488;28;20046;-63
2023/02/17 04:58:41;;;;;;;11.70;8.07;;;7.90;99.90;;;8.85;100.00;98540.25;5026012;28;20056;-63
2023/02/17 05:01:07;;;;;;;11.70;7.35;;;7.90;99.90;;;8.86;100.00;98530.75;5027372;28;20042;-63
2023/02/17 05:03:34;;;;;;;10.73;7.63;;;7.90;99.90;;;8.74;100.00;98532.69;5027598;28;20137;-63
2023/02/17 05:06:01;;;;;;;10.40;7.40;;;7.90;99.90;;;8.77;100.00;98544.72;5028266;28;20052;-63
2023/02/17 05:08:29;;;;;;;10.95;8.38;;;7.90;99.90;;;8.73;100.00;98530.13;5027274;28;20057;-63
2023/02/17 05:10:56;;;;;;;10.25;6.28;;;7.90;99.90;;;8.81;100.00;98530.84;5027329;28;20064;-63
2023/02/17 05:13:23;;;;;;;9.50;6.40;;;8.00;99.90;;;8.97;100.00;98529.63;5027997;28;20057;-63
2023/02/17 05:15:50;;;;;;;6.78;5.65;;;8.00;99.90;;;8.96;100.00;98529.66;5028504;28;20427;-64
2023/02/17 05:18:17;;;;;;;7.45;5.53;;;8.00;99.90;;;8.88;100.00;98529.84;5028706;28;20163;-63
2023/02/17 05:20:44;;;;;;;9.02;6.45;;;8.00;99.90;;;8.78;100.00;98542.13;5026438;28;20049;-63
2023/02/17 05:23:11;;;;;;;9.30;6.70;;;8.00;99.90;;;8.81;100.00;98538.63;5025699;28;20429;-62
2023/02/17 05:25:39;;;;;;;8.43;6.28;;;8.10;99.90;;;9.18;100.00;98541.28;5024646;28;20049;-63
2023/02/17 05:28:06;;;;;;;8.43;5.80;;;8.10;99.90;;;9.03;100.00;98539.00;5028014;28;20492;-62
2023/02/17 05:30:33;;;;;;;8.10;5.53;;;8.00;99.90;;;8.94;100.00;98560.78;5025831;28;20042;-63
2023/02/17 05:33:00;;;;;;;8.38;5.72;;;8.10;99.90;;;8.99;100.00;98553.78;5027952;28;20054;-63
2023/02/17 05:35:27;;;;;;;6.60;5.05;;;8.10;99.90;;;9.08;100.00;98560.50;5025962;28;20049;-63
2023/02/17 05:37:54;;;;;;;6.07;4.55;;;8.20;99.90;;;9.15;100.00;98551.72;5024496;28;20416;-63
2023/02/17 05:40:21;;;;;;;6.00;5.07;;;8.10;99.90;;;9.04;100.00;98555.41;5025760;28;20049;-62
2023/02/17 05:42:48;;;;;;;7.35;5.75;;;8.20;99.90;;;9.00;100.00;98576.19;5027803;28;20041;-63
2023/02/17 05:45:15;;;;;;;7.68;5.65;;;8.30;99.90;;;8.96;100.00;98559.03;5024415;28;20432;-63
2023/02/17 05:47:42;;;;;;;7.55;4.97;;;8.20;99.90;;;9.02;100.00;98554.59;5027436;28;20049;-63
2023/02/17 05:50:09;;;;;;;11.25;6.43;;;8.30;99.90;;;9.02;100.00;98552.00;5026937;28;20559;-63
2023/02/17 05:52:36;;;;;;;9.82;6.63;;;8.30;99.90;;;8.99;100.00;98552.94;5026235;28;20053;-63
2023/02/17 05:55:04;;;;;;;7.28;4.57;;;8.20;99.90;;;8.81;100.00;98554.16;5024157;28;20046;-64
2023/02/17 05:57:31;;;;;;;6.40;5.10;;;8.30;99.90;;;9.18;100.00;98537.84;5027248;28;20115;-63
2023/02/17 05:59:58;;;;;;;8.63;6.47;;;8.30;99.90;;;9.58;100.00;98552.50;5026317;28;20053;-63
2023/02/17 06:02:25;;;;;;;9.52;6.65;;;8.30;99.90;;;9.94;100.00;98550.75;5023194;28;20053;-64
2023/02/17 06:04:52;;;;;;;6.97;5.25;;;8.30;99.90;;;9.56;100.00;98549.09;5021985;28;20045;-63
2023/02/17 06:07:19;;;;;;;9.45;5.25;;;8.30;99.90;;;9.08;100.00;98534.59;5025718;28;20508;-63
2023/02/17 06:09:46;;;;;;;8.95;5.75;;;8.30;99.90;;;9.16;100.00;98542.19;5026660;28;20045;-64
2023/02/17 06:12:13;;;;;;;7.85;5.60;;;8.30;99.90;;;8.87;100.00;98542.78;5025505;28;20061;-63
2023/02/17 06:14:40;;;;;;;7.47;5.82;;;8.30;99.90;;;8.91;100.00;98540.13;5024545;28;20053;-64
2023/02/17 06:17:09;;;;;;;9.38;5.80;;;8.30;99.90;;;8.87;100.00;98530.72;5024948;28;20927;-63
2023/02/17 06:19:36;;;;;;;8.05;5.78;;;8.30;99.90;;;8.72;100.00;98536.22;5028110;28;20057;-63
2023/02/17 06:22:03;;;;;;;8.10;5.80;;;8.30;99.90;;;8.72;100.00;98536.22;5027477;28;20139;-64
2023/02/17 06:24:30;;;;;;;7.20;5.57;;;8.30;99.90;;;8.85;100.00;98550.63;5026057;28;20129;-63
2023/02/17 06:26:57;;;;;;;8.90;6.63;;;8.30;99.90;;;8.56;100.00;98556.34;5028605;28;20095;-63
2023/02/17 06:29:24;;;;;;;6.38;4.97;;;8.30;99.90;;;9.46;100.00;98571.75;5026012;28;20405;-63
2023/02/17 06:31:51;;;;;;;6.15;4.85;;;8.30;99.90;;;9.28;100.00;98552.28;5020443;28;20414;-64
2023/02/17 06:34:18;;;;;;;7.93;6.25;;;8.40;99.90;;;9.51;100.00;98561.28;5027355;28;20107;-64
2023/02/17 06:36:45;;;;;;;7.47;5.57;;;8.40;99.90;;;9.51;100.00;98545.75;5024407;28;20046;-64
2023/02/17 06:39:12;;;;;;;6.65;4.95;;;8.40;99.90;;;9.33;100.00;98553.06;5025165;28;21075;-63
2023/02/17 06:41:39;;;;;;;8.02;5.55;;;8.40;99.90;;;9.27;100.00;98534.19;5025860;28;20045;-63
2023/02/17 06:44:06;;;;;;;7.50;5.47;;;8.50;99.90;;;9.14;100.00;98562.94;5019043;28;20041;-62
2023/02/17 06:46:33;;;;;;;9.88;5.97;;;8.50;99.90;;;9.27;100.00;98579.09;5025268;28;20058;-63
2023/02/17 06:49:01;;;;;;;6.93;4.65;;;8.50;99.90;;;9.46;100.00;98563.13;5025428;28;20500;-63
2023/02/17 06:51:28;;;;;;;7.60;5.35;;;8.50;99.90;;;9.41;100.00;98573.59;5023944;28;20057;-62
2023/02/17 06:53:55;;;;;;;8.82;6.22;;;8.40;99.90;;;9.36;100.00;98586.66;5022928;28;20057;-63
2023/02/17 06:56:22;;;;;;;5.88;4.57;;;8.40;99.90;;;9.11;100.00;98594.09;5026207;28;20126;-63
2023/02/17 06:58:50;;;;;;;9.32;6.18;;;8.40;99.90;;;9.27;100.00;98593.78;5025462;28;20049;-63
2023/02/17 07:01:21;;;;;;;8.15;6.00;;;8.50;99.90;;;8.62;100.00;98576.06;5027963;28;20136;-63
2023/02/17 07:03:48;;;;;;;6.53;5.50;;;8.50;99.90;;;9.18;100.00;98587.06;5025166;28;20078;-63
2023/02/17 07:06:15;;;;;;;7.05;4.95;;;8.50;99.90;;;9.06;100.00;98595.09;5026234;28;20045;-63
2023/02/17 07:08:42;;;;;;;7.43;5.93;;;8.50;99.90;;;9.21;100.00;98607.72;5023589;28;20053;-63
2023/02/17 07:11:12;;;;;;;8.20;5.28;;;8.50;99.90;;;9.36;100.00;98614.31;5024735;28;20046;-63
2023/02/17 07:13:40;;;;;;;6.90;4.95;;;8.50;99.90;;;9.54;100.00;98621.69;5024977;28;20046;-63
2023/02/17 07:16:10;;;;;;;6.82;4.47;;;8.50;99.90;;;9.40;100.00;98621.16;5023776;28;20501;-63
2023/02/17 07:18:38;;;;;;;7.18;4.78;;;8.50;99.90;;;9.19;100.00;98612.94;5021750;28;20064;-63
2023/02/17 07:21:07;;;;;;;8.15;4.95;;;8.60;99.90;;;9.49;100.00;98626.13;5023489;28;20055;-64
2023/02/17 07:23:36;;;;;;;7.40;5.05;;;8.60;99.90;;;9.57;100.00;98606.06;5015920;28;20049;-64
2023/02/17 07:26:08;;;;;;;7.40;5.13;;;8.60;99.90;;;9.35;100.00;98621.25;5023581;28;20057;-63
2023/02/17 07:28:37;;;;;;;5.55;4.35;;;8.70;99.90;;;9.50;100.00;98603.66;5025750;28;20128;-63
2023/02/17 07:31:09;;;;;;;10.80;7.97;;;8.70;99.90;;;9.40;100.00;98613.38;5025100;28;20173;-64
2023/02/17 07:33:38;;;;;;;8.68;4.78;;;8.70;99.90;;;9.46;100.00;98609.78;5025733;28;20060;-63
2023/02/17 07:36:12;;;;;;;8.27;4.82;;;8.70;99.90;;;9.43;100.00;98608.97;5042316;28;20452;-63
2023/02/17 07:38:40;;;;;;;5.00;3.95;;;8.80;99.90;;;9.58;100.00;98601.75;5026812;28;20049;-63
2023/02/17 07:41:16;;;;;;;7.63;4.07;;;8.80;99.90;;;9.45;100.00;98608.94;5024143;28;20052;-64
2023/02/17 07:43:44;;;;;;;7.40;4.43;;;8.80;99.90;;;9.38;100.00;98620.31;5023679;28;20295;-63
2023/02/17 07:46:12;;;;;;;5.03;3.45;;;8.80;99.90;;;9.37;100.00;98606.53;5023331;28;20064;-63
2023/02/17 07:48:40;;;;;;;5.20;3.78;;;8.80;99.90;;;9.57;100.00;98598.28;5037901;28;20104;-63
2023/02/17 07:51:11;;;;;;;5.53;3.88;;;8.80;99.90;;;9.30;100.00;98604.91;5024319;28;20045;-63
2023/02/17 07:53:38;;;;;;;5.45;3.67;;;8.90;99.90;;;9.54;100.00;98581.97;5024848;28;20056;-63
2023/02/17 07:56:10;;;;;;;6.13;3.42;;;8.90;99.90;;;9.34;100.00;98616.09;5036392;28;20056;-64
2023/02/17 07:58:40;;;;;;;6.25;4.13;;;8.90;99.90;;;9.63;100.00;98585.22;5020394;28;20049;-63
2023/02/17 08:01:15;;;;;;;5.72;4.43;;;8.90;99.90;;;9.43;100.00;98569.25;5023708;28;20072;-63
2023/02/17 08:03:43;;;;;;;8.50;4.00;;;8.90;99.90;;;9.46;100.00;98563.13;5024136;28;20049;-64
2023/02/17 08:06:17;;;;;;;6.70;4.72;;;8.90;99.90;;;9.80;100.00;98564.06;5022849;28;20480;-64
2023/02/17 08:14:17;;;;;;;6.85;4.88;;;9.10;99.90;;;9.46;100.00;98553.63;5025375;28;20073;-62
2023/02/17 08:16:44;;;;;;;6.47;5.03;;;9.10;99.90;;;9.51;100.00;98551.81;5024609;28;20049;-63
2023/02/17 08:19:11;;;;;;;6.93;4.75;;;9.10;99.90;;;9.59;100.00;98560.22;5026335;28;20584;-63
2023/02/17 08:21:40;;;;;;;7.13;5.20;;;9.10;99.90;;;9.45;100.00;98577.00;5027085;28;20049;-64
2023/02/17 08:24:07;;;;;;;8.45;5.97;;;9.10;99.90;;;9.62;100.00;98575.75;5028594;28;20045;-63
2023/02/17 08:26:34;;;;;;;8.18;6.13;;;9.10;99.90;;;9.72;100.00;98578.97;5028328;28;20523;-63
2023/02/17 08:29:01;;;;;;;6.32;5.10;;;9.10;99.90;;;9.53;100.00;98609.59;5028189;28;20060;-63
2023/02/17 08:31:32;;;;;;;6.93;5.30;;;9.10;99.90;;;9.72;100.00;98583.31;5024992;28;20152;-63
2023/02/17 08:34:03;;;;;;;9.75;6.80;;;9.20;99.90;;;9.59;100.00;98587.91;5054319;28;20045;-63
2023/02/17 08:36:30;;;;;;;6.63;5.22;;;9.20;99.90;;;9.66;100.00;98576.50;5026404;28;20069;-63
2023/02/17 08:38:58;;;;;;;8.40;6.13;;;9.20;99.90;;;9.47;100.00;98593.38;5027882;28;20472;-64
2023/02/17 08:41:30;;;;;;;9.82;6.88;;;9.10;99.90;;;9.40;100.00;98583.13;5025962;28;20073;-63
2023/02/17 08:44:01;;;;;;;8.63;6.85;;;9.30;99.90;;;9.46;100.00;98570.91;5025363;28;20044;-64
2023/02/17 08:46:29;;;;;;;11.48;7.82;;;9.20;99.90;;;9.45;100.00;98588.22;5027847;28;20488;-63
2023/02/17 08:48:56;;;;;;;9.57;6.95;;;9.20;99.90;;;9.47;100.00;98588.19;5025147;28;20060;-63
2023/02/17 08:51:25;;;;;;;7.25;6.00;;;9.20;99.90;;;9.52;100.00;98588.94;5026216;28;20049;-64
2023/02/17 08:53:57;;;;;;;11.50;7.47;;;9.20;99.90;;;9.38;100.00;98604.78;5025398;28;20103;-63
2023/02/17 08:56:25;;;;;;;10.90;7.27;;;9.10;99.90;;;9.53;100.00;98606.16;5027633;28;20056;-63
2023/02/17 08:58:53;;;;;;;10.35;7.57;;;9.10;99.90;;;9.46;100.00;98596.81;5023561;28;20057;-63
2023/02/17 09:01:22;;;;;;;9.55;6.35;;;9.00;99.90;;;9.53;100.00;98591.47;5023966;28;20095;-63
2023/02/17 09:03:51;;;;;;;9.35;7.60;;;9.00;99.90;;;9.50;100.00;98593.28;5022751;28;20052;-64
2023/02/17 09:06:20;;;;;;;10.20;7.25;;;9.00;99.90;;;9.33;100.00;98627.34;5027505;28;20853;-63
2023/02/17 09:08:48;;;;;;;10.27;7.05;;;9.00;99.90;;;9.30;100.00;98615.28;5025904;28;20077;-63
2023/02/17 09:11:17;;;;;;;10.10;6.68;;;9.00;99.90;;;9.23;100.00;98639.63;5022759;28;20061;-63
2023/02/17 09:13:45;;;;;;;10.48;7.82;;;9.00;99.90;;;9.30;100.00;98630.84;5035322;28;20638;-63
2023/02/17 09:16:12;;;;;;;10.23;6.57;;;9.00;99.90;;;9.32;100.00;98654.97;5025410;28;20068;-64
2023/02/17 09:18:39;;;;;;;10.10;6.80;;;9.00;99.90;;;9.31;100.00;98631.72;5027184;28;20484;-63
2023/02/17 09:21:10;;;;;;;10.10;6.40;;;9.00;99.90;;;9.33;100.00;98659.28;5023652;28;20509;-63
2023/02/17 09:23:37;;;;;;;11.82;8.10;;;9.00;99.90;;;9.39;100.00;98651.38;5025597;28;20128;-63
2023/02/17 09:26:08;;;;;;;9.60;6.63;;;9.00;99.90;;;9.45;100.00;98645.22;5026936;28;20046;-63
2023/02/17 09:28:36;;;;;;;7.32;5.35;;;8.90;99.90;;;9.51;100.00;98655.47;5024119;28;20050;-63
2023/02/17 09:31:19;;;;;;;6.90;4.88;;;9.00;99.90;;;9.71;100.00;98643.81;5022050;28;20054;-63
2023/02/17 09:33:48;;;;;;;7.05;4.22;;;9.10;99.90;;;9.79;100.00;98642.75;5026076;28;20061;-64
2023/02/17 09:36:19;;;;;;;7.10;4.55;;;9.10;99.90;;;9.75;100.00;98651.47;5017171;28;20073;-63
2023/02/17 09:38:47;;;;;;;5.88;3.40;;;9.10;99.90;;;9.73;100.00;98635.09;5024853;28;20042;-63
2023/02/17 09:41:24;;;;;;;6.00;4.05;;;9.10;99.90;;;9.89;100.00;98639.94;5026992;28;20614;-63
2023/02/17 09:43:53;;;;;;;5.68;3.97;;;9.30;99.90;;;9.89;100.00;98629.56;5023290;28;20049;-64
2023/02/17 09:46:35;;;;;;;4.80;3.28;;;9.20;99.90;;;9.89;100.00;98643.38;5025011;28;20075;-64
2023/02/17 09:49:31;;;;;;;3.90;2.88;;;9.20;99.90;;;9.80;100.00;98654.81;5032836;28;20080;-64
2023/02/17 09:52:10;;;;;;;3.58;2.80;;;9.30;99.90;;;9.73;100.00;98650.66;5024979;28;20145;-64
2023/02/17 09:55:12;;;;;;;4.55;3.28;;;9.30;99.90;;;9.85;100.00;98639.16;5025506;28;20496;-63
2023/02/17 09:58:06;;;;;;;5.10;3.50;;;9.30;99.90;;;9.73;100.00;98660.19;5018865;28;20056;-64
2023/02/17 10:00:41;;;;;;;5.00;3.40;;;9.30;99.90;;;9.64;100.00;98667.25;5015204;28;20041;-63
2023/02/17 10:03:18;;;;;;;5.18;3.42;;;9.30;99.90;;;9.83;100.00;98678.09;5024646;28;20159;-63
2023/02/17 10:06:15;;;;;;;4.60;3.30;;;9.30;99.90;;;9.80;100.00;98672.97;5028431;28;20084;-63
2023/02/17 10:08:48;;;;;;;5.80;4.15;;;9.20;99.90;;;9.77;100.00;98657.50;5024745;28;20056;-63
2023/02/17 10:11:38;;;;;;;7.80;4.93;;;9.20;99.90;;;9.63;100.00;98612.88;5023994;28;20061;-64
2023/02/17 10:14:15;;;;;;;5.82;4.03;;;9.20;99.90;;;9.58;100.00;98651.00;5027312;28;20045;-63
2023/02/17 10:17:02;;;;;;;6.35;4.70;;;9.20;99.90;;;9.55;100.00;98653.66;5027239;28;20049;-63
2023/02/17 10:20:13;;;;;;;6.88;4.90;;;9.20;99.90;;;9.63;100.00;98647.41;5022842;28;20055;-63
2023/02/17 10:22:45;;;;;;;8.68;6.00;;;9.10;99.90;;;9.69;100.00;98669.75;4953064;28;20055;-62
2023/02/17 10:25:21;;;;;;;7.03;4.85;;;9.10;99.90;;;9.63;100.00;98670.75;5013110;28;20049;-63
2023/02/17 10:28:02;;;;;;;8.07;5.32;;;9.20;99.90;;;9.48;100.00;98688.34;5026615;28;20160;-63
2023/02/17 10:30:29;;;;;;;7.45;4.95;;;9.10;99.90;;;9.36;100.00;98682.53;5024947;28;20057;-63
2023/02/17 10:33:28;;;;;;;8.20;6.03;;;9.10;99.90;;;9.43;100.00;98694.47;5024816;28;20049;-63
2023/02/17 10:36:01;;;;;;;8.90;5.13;;;9.10;99.90;;;9.84;100.00;98690.16;5026207;28;20049;-63
2023/02/17 10:38:47;;;;;;;6.45;4.38;;;9.10;99.90;;;9.58;100.00;98706.28;5024602;28;20049;-63
2023/02/17 10:41:21;;;;;;;5.95;4.22;;;9.10;99.90;;;9.23;100.00;98704.38;5022823;28;20054;-63
2023/02/17 10:43:48;;;;;;;7.53;4.88;;;9.20;99.90;;;9.71;100.00;98700.84;5024362;28;20216;-64